createdAt,value
2022-12-23T00:04:05.451Z,5.13
2022-12-23T00:09:08.513Z,5.11
2022-12-23T00:14:30.070Z,5.13
2022-12-23T00:19:33.013Z,5.20
2022-12-23T00:24:35.887Z,5.25
2022-12-23T00:29:38.818Z,5.26
2022-12-23T00:34:41.735Z,5.27
2022-12-23T00:40:06.725Z,5.33
2022-12-23T00:45:16.232Z,5.40
2022-12-23T00:50:19.244Z,5.43
2022-12-23T00:55:22.830Z,5.41
2022-12-23T01:00:44.334Z,5.41
2022-12-23T01:05:47.340Z,5.44
2022-12-23T01:10:50.362Z,5.43
2022-12-23T01:15:53.302Z,5.40
2022-12-23T01:20:56.703Z,5.36
2022-12-23T01:26:02.406Z,5.37
2022-12-23T01:31:09.990Z,5.40
2022-12-23T01:36:13.160Z,5.41
2022-12-23T01:41:40.357Z,5.37
2022-12-23T01:46:43.609Z,5.35
2022-12-23T01:51:46.697Z,5.38
2022-12-23T01:56:49.758Z,5.40
2022-12-23T02:02:12.062Z,5.38
2022-12-23T02:07:35.011Z,5.34
2022-12-23T02:12:52.226Z,5.34
2022-12-23T02:18:06.001Z,5.37
2022-12-23T02:24:03.230Z,5.38
2022-12-23T02:29:55.742Z,5.34
2022-12-23T02:35:16.863Z,5.28
2022-12-23T02:40:38.615Z,5.30
2022-12-23T02:46:15.692Z,5.36
2022-12-23T02:51:22.470Z,5.37
2022-12-23T02:56:28.393Z,5.34
2022-12-23T03:01:33.710Z,5.31
2022-12-23T03:06:43.402Z,5.32
2022-12-23T03:12:05.437Z,5.37
2022-12-23T03:17:36.225Z,5.41
2022-12-23T03:22:48.682Z,5.41
2022-12-23T03:28:17.586Z,5.35
2022-12-23T03:33:38.367Z,5.34
2022-12-23T03:38:44.561Z,5.38
2022-12-23T03:43:58.853Z,5.40
2022-12-23T03:49:10.381Z,5.37
2022-12-23T03:54:24.634Z,5.36
2022-12-23T03:59:34.433Z,5.41
2022-12-23T04:05:14.865Z,5.43
2022-12-23T04:10:19.359Z,5.40
2022-12-23T04:15:24.929Z,5.39
2022-12-23T04:20:27.905Z,5.43
2022-12-23T04:25:31.028Z,5.46
2022-12-23T04:30:34.886Z,5.46
2022-12-23T04:35:38.191Z,5.42
2022-12-23T04:40:41.158Z,5.44
2022-12-23T04:45:44.053Z,5.49
2022-12-23T04:50:46.988Z,5.50
2022-12-23T04:55:51.704Z,5.47
2022-12-23T05:01:03.292Z,5.43
2022-12-23T05:06:07.203Z,5.44
2022-12-23T05:11:09.956Z,5.49
2022-12-23T05:16:13.061Z,5.50
2022-12-23T05:21:16.140Z,5.45
2022-12-23T05:26:19.552Z,5.36
2022-12-23T05:31:22.671Z,5.35
2022-12-23T05:36:25.617Z,5.38
2022-12-23T05:41:28.576Z,5.37
2022-12-23T05:46:31.579Z,5.32
2022-12-23T05:51:34.622Z,5.27
2022-12-23T05:56:37.596Z,5.27
2022-12-23T06:01:40.579Z,5.31
2022-12-23T06:06:43.567Z,5.33
2022-12-23T06:11:46.468Z,5.30
2022-12-23T06:16:51.613Z,5.20
2022-12-23T06:21:54.620Z,5.19
2022-12-23T06:26:57.757Z,5.22
2022-12-23T06:32:00.842Z,5.23
2022-12-23T06:37:03.867Z,5.18
2022-12-23T06:42:06.767Z,5.14
2022-12-23T06:47:09.745Z,5.14
2022-12-23T06:52:12.681Z,5.16
2022-12-23T06:57:15.636Z,5.18
2022-12-23T07:02:18.690Z,5.14
2022-12-23T07:07:21.809Z,5.11
2022-12-23T07:12:24.839Z,5.14
2022-12-23T07:17:28.324Z,5.21
2022-12-23T07:22:31.291Z,5.27
2022-12-23T07:27:34.193Z,5.29
2022-12-23T07:32:37.119Z,5.28
2022-12-23T07:37:40.150Z,5.35
2022-12-23T07:42:45.644Z,5.45
2022-12-23T07:47:57.955Z,5.49
2022-12-23T07:53:00.987Z,5.51
2022-12-23T07:58:03.967Z,5.47
2022-12-23T08:03:07.019Z,5.49
2022-12-23T08:08:09.971Z,5.55
2022-12-23T08:13:12.861Z,5.61
2022-12-23T08:18:15.783Z,5.68
2022-12-23T08:23:24.412Z,5.57
2022-12-23T08:28:28.600Z,5.44
2022-12-23T08:33:31.920Z,5.41
2022-12-23T08:38:36.552Z,5.42
2022-12-23T08:43:40.326Z,5.50
2022-12-23T08:48:48.953Z,5.51
2022-12-23T08:54:00.430Z,5.50
2022-12-23T08:59:04.369Z,5.54
2022-12-23T09:04:07.836Z,5.56
2022-12-23T09:09:13.499Z,5.66
2022-12-23T09:14:16.421Z,5.76
2022-12-23T09:19:19.384Z,5.79
2022-12-23T09:24:22.316Z,5.73
2022-12-23T09:29:25.243Z,5.65
2022-12-23T09:34:28.238Z,5.67
2022-12-23T09:39:31.159Z,5.67
2022-12-23T09:45:03.436Z,5.68
2022-12-23T09:50:29.392Z,5.69
2022-12-23T09:56:02.325Z,5.77
2022-12-23T10:01:18.992Z,5.85
2022-12-23T10:06:28.270Z,5.91
2022-12-23T10:11:51.455Z,5.94
2022-12-23T10:16:57.819Z,6.00
2022-12-23T10:22:16.405Z,6.11
2022-12-23T10:27:41.436Z,6.16
2022-12-23T10:33:05.811Z,6.13
2022-12-23T10:39:06.057Z,6.18
2022-12-23T10:44:44.536Z,6.30
2022-12-23T10:50:14.785Z,6.37
2022-12-23T10:55:32.891Z,6.38
2022-12-23T11:00:41.243Z,6.45
2022-12-23T11:05:45.667Z,6.49
2022-12-23T11:10:49.212Z,6.50
2022-12-23T11:15:52.915Z,6.51
2022-12-23T11:21:06.015Z,6.58
2022-12-23T11:26:18.692Z,6.67
2022-12-23T11:31:35.602Z,6.75
2022-12-23T11:36:40.891Z,6.78
2022-12-23T11:41:48.037Z,6.85
2022-12-23T11:46:51.247Z,6.92
2022-12-23T11:52:06.229Z,6.93
2022-12-23T11:57:19.151Z,6.89
2022-12-23T12:02:39.843Z,6.91
2022-12-23T12:07:47.826Z,6.91
2022-12-23T12:12:56.948Z,6.90
2022-12-23T12:18:02.009Z,6.87
2022-12-23T12:23:37.781Z,6.88
2022-12-23T12:28:45.500Z,6.96
2022-12-23T12:34:14.405Z,6.94
2022-12-23T12:39:30.771Z,6.88
2022-12-23T12:45:14.578Z,6.89
2022-12-23T12:50:29.418Z,6.95
2022-12-23T12:55:37.963Z,6.92
2022-12-23T13:01:18.176Z,6.85
2022-12-23T13:06:47.502Z,6.84
2022-12-23T13:12:24.606Z,6.85
2022-12-23T13:17:38.519Z,6.82
2022-12-23T13:22:44.893Z,6.78
2022-12-23T13:29:05.203Z,6.77
2022-12-23T13:34:26.089Z,6.78
2022-12-23T13:40:03.795Z,6.73
2022-12-23T13:45:15.213Z,6.67
2022-12-23T13:50:33.648Z,6.65
2022-12-23T13:56:19.503Z,6.64
2022-12-23T14:01:33.307Z,6.56
2022-12-23T14:06:36.825Z,6.50
2022-12-23T14:11:39.968Z,6.48
2022-12-23T14:17:08.578Z,6.42
2022-12-23T14:22:26.695Z,6.33
2022-12-23T14:27:58.651Z,6.31
2022-12-23T14:33:29.213Z,6.32
2022-12-23T14:38:33.176Z,6.26
2022-12-23T14:43:45.163Z,6.22
2022-12-23T14:48:48.087Z,6.22
2022-12-23T14:54:00.185Z,6.20
2022-12-23T14:59:12.583Z,6.13
2022-12-23T15:04:29.362Z,6.11
2022-12-23T15:09:39.859Z,6.14
2022-12-23T15:14:56.547Z,6.12
2022-12-23T15:20:25.383Z,6.08
2022-12-23T15:25:36.010Z,6.07
2022-12-23T15:30:57.954Z,6.11
2022-12-23T15:36:05.046Z,6.10
2022-12-23T15:41:18.843Z,6.07
2022-12-23T15:46:29.656Z,6.10
2022-12-23T15:57:03.542Z,6.11
2022-12-23T16:02:59.711Z,6.11
2022-12-23T16:07:49.194Z,6.17
2022-12-23T16:12:53.153Z,6.19
2022-12-23T16:18:20.556Z,6.15
2022-12-23T16:23:25.015Z,6.17
2022-12-23T16:28:41.417Z,6.19
2022-12-23T16:33:45.690Z,6.19
2022-12-23T16:38:49.935Z,6.16
2022-12-23T16:43:53.213Z,6.20
2022-12-23T16:48:59.851Z,6.28
2022-12-23T16:54:03.373Z,6.33
2022-12-23T16:59:06.442Z,6.31
2022-12-23T17:04:09.385Z,6.34
2022-12-23T17:09:12.400Z,6.41
2022-12-23T17:14:23.552Z,6.43
2022-12-23T17:19:29.146Z,6.40
2022-12-23T17:24:32.678Z,6.40
2022-12-23T17:29:36.246Z,6.44
2022-12-23T17:34:39.620Z,6.45
2022-12-23T17:39:46.525Z,6.42
2022-12-23T17:44:50.257Z,6.40
2022-12-23T17:49:53.345Z,6.45
2022-12-23T17:54:56.353Z,6.48
2022-12-23T17:59:59.536Z,6.47
2022-12-23T18:05:09.400Z,6.46
2022-12-23T18:10:29.910Z,6.51
2022-12-23T18:15:36.713Z,6.55
2022-12-23T18:20:46.056Z,6.55
2022-12-23T18:25:48.992Z,6.53
2022-12-23T18:30:55.108Z,6.57
2022-12-23T18:35:58.531Z,6.67
2022-12-23T18:41:01.546Z,6.72
2022-12-23T18:46:04.582Z,6.73
2022-12-23T18:51:07.847Z,6.70
2022-12-23T18:56:21.301Z,6.70
2022-12-23T19:01:24.594Z,6.75
2022-12-23T19:06:27.687Z,6.77
2022-12-23T19:11:30.757Z,6.75
2022-12-23T19:16:33.758Z,6.70
2022-12-23T19:21:36.859Z,6.71
2022-12-23T19:26:39.804Z,6.78
2022-12-23T19:31:42.770Z,6.83
2022-12-23T19:36:45.859Z,6.84
2022-12-23T19:41:48.859Z,6.82
2022-12-23T19:46:51.950Z,6.84
2022-12-23T19:51:57.360Z,6.92
2022-12-23T19:57:01.915Z,6.97
2022-12-23T20:02:04.914Z,6.96
2022-12-23T20:07:08.368Z,6.91
2022-12-23T20:12:11.444Z,6.94
2022-12-23T20:17:16.560Z,7.00
2022-12-23T20:22:24.623Z,7.04
2022-12-23T20:27:41.758Z,7.02
2022-12-23T20:32:45.321Z,6.95
2022-12-23T20:37:48.433Z,6.94
2022-12-23T20:42:51.546Z,6.98
2022-12-23T20:47:54.703Z,6.98
2022-12-23T20:52:57.852Z,6.93
2022-12-23T20:58:20.967Z,6.85
2022-12-23T21:03:25.292Z,6.84
2022-12-23T21:08:28.487Z,6.82
2022-12-23T21:13:31.849Z,6.74
2022-12-23T21:18:35.554Z,6.69
2022-12-23T21:23:41.604Z,6.59
2022-12-23T21:28:46.769Z,6.63
2022-12-23T21:33:51.507Z,6.73
2022-12-23T21:38:55.164Z,6.77
2022-12-23T21:44:00.289Z,6.76
2022-12-23T21:49:03.866Z,6.71
2022-12-23T21:54:07.599Z,6.73
2022-12-23T21:59:14.890Z,6.73
2022-12-23T22:04:18.354Z,6.70
2022-12-23T22:09:21.638Z,6.66
2022-12-23T22:14:24.926Z,6.69
2022-12-23T22:19:28.256Z,6.77
2022-12-23T22:24:31.453Z,6.81
2022-12-23T22:29:36.831Z,6.78
2022-12-23T22:34:39.919Z,6.75
2022-12-23T22:39:43.008Z,6.78
2022-12-23T22:44:46.121Z,6.84
2022-12-23T22:49:49.334Z,6.84
2022-12-23T22:54:52.506Z,6.79
2022-12-23T22:59:57.063Z,6.76
2022-12-23T23:05:00.224Z,6.80
2022-12-23T23:10:04.003Z,6.81
2022-12-23T23:15:08.216Z,6.76
2022-12-23T23:20:11.609Z,6.72
2022-12-23T23:25:14.825Z,6.68
2022-12-23T23:30:17.990Z,6.69
2022-12-23T23:35:21.121Z,6.65
2022-12-23T23:40:24.727Z,6.51
2022-12-23T23:45:28.032Z,6.47
2022-12-23T23:50:31.182Z,6.48
2022-12-23T23:55:34.319Z,6.53
